createdAt,value
2018-02-16T00:00:10.370Z,57.97
2018-02-16T00:02:39.268Z,89.95
2018-02-16T00:05:08.188Z,97.78
2018-02-16T00:07:36.341Z,56.85
2018-02-16T00:10:05.212Z,59.20
2018-02-16T00:12:34.119Z,54.72
2018-02-16T00:15:02.233Z,58.47
2018-02-16T00:17:30.367Z,60.92
2018-02-16T00:19:58.505Z,61.00
2018-02-16T00:22:27.402Z,80.93
2018-02-16T00:24:56.293Z,91.87
2018-02-16T00:27:25.202Z,97.95
2018-02-16T00:29:53.329Z,109.82
2018-02-16T00:32:21.470Z,66.53
2018-02-16T00:34:49.584Z,62.60
2018-02-16T00:37:18.491Z,78.60
2018-02-16T00:39:46.612Z,90.70
2018-02-16T00:42:14.777Z,53.25
2018-02-16T00:44:42.953Z,57.22
2018-02-16T00:47:11.226Z,69.70
2018-02-16T00:49:39.361Z,82.28
2018-02-16T00:52:07.478Z,84.25
2018-02-16T00:54:35.635Z,100.28
2018-02-16T00:57:03.758Z,101.43
2018-02-16T00:59:32.671Z,72.20
2018-02-16T01:02:00.800Z,64.32
2018-02-16T01:04:28.945Z,52.85
2018-02-16T01:06:57.052Z,55.88
2018-02-16T01:09:25.966Z,110.03
2018-02-16T01:11:54.098Z,111.53
2018-02-16T01:14:22.239Z,109.10
2018-02-16T01:16:50.369Z,85.22
2018-02-16T01:19:19.280Z,100.68
2018-02-16T01:21:47.413Z,61.55
2018-02-16T01:24:15.554Z,128.52
2018-02-16T01:26:43.694Z,63.83
2018-02-16T01:29:11.821Z,75.43
2018-02-16T01:31:39.953Z,140.02
2018-02-16T01:34:08.088Z,59.22
2018-02-16T01:36:36.983Z,53.28
2018-02-16T01:39:05.107Z,72.37
2018-02-16T01:41:33.244Z,56.25
2018-02-16T01:44:01.384Z,49.40
2018-02-16T01:46:30.284Z,55.63
2018-02-16T01:48:58.416Z,90.12
2018-02-16T01:51:26.552Z,57.45
2018-02-16T01:53:54.670Z,50.72
2018-02-16T01:56:22.832Z,55.55
2018-02-16T01:58:50.941Z,104.82
2018-02-16T02:01:19.841Z,108.25
2018-02-16T02:03:47.978Z,54.70
2018-02-16T02:06:16.119Z,51.55
2018-02-16T02:08:44.249Z,52.38
2018-02-16T02:11:12.401Z,51.20
2018-02-16T02:13:40.514Z,44.90
2018-02-16T02:16:08.675Z,49.38
2018-02-16T02:18:36.797Z,45.10
2018-02-16T02:21:24.785Z,42.55
2018-02-16T02:23:52.908Z,41.90
2018-02-16T02:26:21.057Z,46.50
2018-02-16T02:28:49.560Z,43.38
2018-02-16T02:31:19.205Z,43.38
2018-02-16T02:33:47.341Z,41.37
2018-02-16T02:36:15.581Z,40.58
2018-02-16T02:38:43.749Z,45.00
2018-02-16T02:41:12.719Z,44.38
2018-02-16T02:43:40.882Z,38.17
2018-02-16T02:46:09.048Z,43.75
2018-02-16T02:48:37.137Z,44.25
2018-02-16T02:51:05.382Z,39.83
2018-02-16T02:53:33.576Z,42.72
2018-02-16T02:56:01.709Z,40.58
2018-02-16T02:58:29.884Z,45.22
2018-02-16T03:00:57.993Z,39.35
2018-02-16T03:03:26.146Z,37.55
2018-02-16T03:05:54.280Z,40.67
2018-02-16T03:08:22.405Z,43.00
2018-02-16T03:10:50.546Z,40.03
2018-02-16T03:13:19.433Z,49.10
2018-02-16T03:15:48.337Z,43.22
2018-02-16T03:18:17.232Z,39.78
2018-02-16T03:20:45.381Z,39.75
2018-02-16T03:23:13.506Z,42.95
2018-02-16T03:25:41.659Z,40.42
2018-02-16T03:28:09.837Z,37.10
2018-02-16T03:30:37.977Z,37.00
2018-02-16T03:33:06.870Z,38.28
2018-02-16T03:35:35.770Z,41.03
2018-02-16T03:38:03.893Z,40.53
2018-02-16T03:40:32.392Z,42.40
2018-02-16T03:43:00.522Z,43.25
2018-02-16T03:45:28.658Z,39.10
2018-02-16T03:47:57.528Z,42.20
2018-02-16T03:50:25.669Z,39.55
2018-02-16T03:52:53.794Z,44.03
2018-02-16T03:55:22.768Z,43.40
2018-02-16T03:57:51.665Z,46.45
2018-02-16T04:00:19.957Z,47.85
2018-02-16T04:02:48.236Z,56.05
2018-02-16T04:05:16.366Z,88.35
2018-02-16T04:07:46.021Z,40.67
2018-02-16T04:10:14.158Z,55.60
2018-02-16T04:12:42.289Z,41.78
2018-02-16T04:15:10.450Z,39.00
2018-02-16T04:17:38.569Z,37.55
2018-02-16T04:20:07.480Z,50.97
2018-02-16T04:22:35.632Z,32.50
2018-02-16T04:25:03.740Z,47.10
2018-02-16T04:27:31.884Z,131.95
2018-02-16T04:30:00.784Z,111.45
2018-02-16T04:32:29.702Z,46.67
2018-02-16T04:34:57.822Z,80.97
2018-02-16T04:37:25.989Z,99.13
2018-02-16T04:39:54.121Z,72.25
2018-02-16T04:42:22.335Z,57.95
2018-02-16T04:44:50.472Z,114.82
2018-02-16T04:47:18.601Z,56.80
2018-02-16T04:49:46.736Z,54.88
2018-02-16T04:52:14.883Z,47.15
2018-02-16T04:54:43.027Z,45.80
2018-02-16T04:57:11.161Z,40.45
2018-02-16T04:59:39.308Z,50.28
2018-02-16T05:02:07.433Z,74.62
2018-02-16T05:04:35.600Z,43.58
2018-02-16T05:07:03.716Z,47.78
2018-02-16T05:09:31.856Z,49.47
2018-02-16T05:12:00.033Z,45.55
2018-02-16T05:14:28.735Z,47.62
2018-02-16T05:16:56.981Z,51.75
2018-02-16T05:19:25.137Z,41.33
2018-02-16T05:21:53.346Z,28.33
2018-02-16T05:24:21.488Z,27.58
2018-02-16T05:26:49.628Z,31.15
2018-02-16T05:29:18.553Z,33.47
2018-02-16T05:31:46.779Z,29.37
2018-02-16T05:34:14.934Z,30.25
2018-02-16T05:36:43.052Z,33.13
2018-02-16T05:39:11.173Z,28.20
2018-02-16T05:41:39.308Z,50.55
2018-02-16T05:44:07.457Z,56.22
2018-02-16T05:46:35.601Z,45.03
2018-02-16T05:49:03.720Z,40.47
2018-02-16T05:51:31.869Z,37.58
2018-02-16T05:54:00.780Z,36.20
2018-02-16T05:56:29.681Z,74.62
2018-02-16T05:58:57.836Z,36.33
2018-02-16T06:01:25.990Z,72.93
2018-02-16T06:03:54.297Z,95.68
2018-02-16T06:06:22.444Z,41.40
2018-02-16T06:08:50.604Z,37.00
2018-02-16T06:11:18.729Z,66.90
2018-02-16T06:13:46.850Z,37.47
2018-02-16T06:16:15.769Z,37.42
2018-02-16T06:18:43.900Z,33.47
2018-02-16T06:21:12.052Z,36.15
2018-02-16T06:23:40.211Z,39.47
2018-02-16T06:26:08.332Z,35.50
2018-02-16T06:28:37.236Z,33.35
2018-02-16T06:31:05.480Z,43.87
2018-02-16T06:33:33.587Z,48.60
2018-02-16T06:36:01.857Z,95.20
2018-02-16T06:38:29.993Z,68.70
2018-02-16T06:40:58.156Z,51.95
2018-02-16T06:43:26.321Z,41.83
2018-02-16T06:45:54.456Z,71.40
2018-02-16T06:48:22.712Z,46.90
2018-02-16T06:50:50.861Z,49.72
2018-02-16T06:53:19.771Z,51.15
2018-02-16T06:55:48.652Z,62.97
2018-02-16T06:58:17.554Z,44.20
2018-02-16T07:00:45.738Z,52.97
2018-02-16T07:03:13.909Z,46.97
2018-02-16T07:05:42.046Z,42.78
2018-02-16T07:08:10.964Z,46.47
2018-02-16T07:10:39.097Z,44.20
2018-02-16T07:13:07.238Z,35.95
2018-02-16T07:15:35.372Z,38.75
2018-02-16T07:18:03.501Z,38.55
2018-02-16T07:20:31.649Z,35.63
2018-02-16T07:22:59.785Z,32.30
2018-02-16T07:25:27.928Z,116.12
2018-02-16T07:27:56.880Z,45.90
2018-02-16T07:30:25.035Z,56.00
2018-02-16T07:32:53.175Z,86.37
2018-02-16T07:35:21.321Z,64.97
2018-02-16T07:37:49.443Z,132.45
2018-02-16T07:40:18.419Z,217.20
2018-02-16T07:42:46.552Z,454.90
2018-02-16T07:45:16.214Z,132.00
2018-02-16T07:47:44.359Z,86.15
2018-02-16T07:50:12.499Z,62.50
2018-02-16T07:52:40.620Z,60.78
2018-02-16T07:55:08.757Z,60.00
2018-02-16T07:57:36.896Z,67.22
2018-02-16T08:00:05.100Z,111.80
2018-02-16T08:02:33.985Z,80.07
2018-02-16T08:05:02.137Z,74.72
2018-02-16T08:07:30.277Z,73.35
2018-02-16T08:09:58.437Z,171.07
2018-02-16T08:12:26.589Z,77.90
2018-02-16T08:14:55.505Z,80.82
2018-02-16T08:17:23.632Z,276.00
2018-02-16T08:19:51.770Z,196.60
2018-02-16T08:22:19.925Z,49.75
2018-02-16T08:24:48.046Z,85.32
2018-02-16T08:27:16.190Z,83.70
2018-02-16T08:29:44.317Z,54.80
2018-02-16T08:32:12.481Z,142.65
2018-02-16T08:34:40.608Z,159.45
2018-02-16T08:37:08.776Z,97.75
2018-02-16T08:39:36.900Z,130.52
2018-02-16T08:42:05.049Z,114.62
2018-02-16T08:44:33.204Z,52.15
2018-02-16T08:47:01.330Z,79.65
2018-02-16T08:49:29.481Z,51.78
2018-02-16T08:51:57.638Z,58.65
2018-02-16T08:54:26.548Z,43.90
2018-02-16T08:56:55.448Z,68.47
2018-02-16T08:59:23.580Z,52.10
2018-02-16T09:01:51.740Z,43.75
2018-02-16T09:04:19.875Z,38.60
2018-02-16T09:06:48.029Z,35.80
2018-02-16T09:09:16.189Z,53.15
2018-02-16T09:11:45.160Z,75.90
2018-02-16T09:14:13.406Z,42.85
2018-02-16T09:16:41.614Z,41.58
2018-02-16T09:19:14.626Z,39.78
2018-02-16T09:21:42.762Z,40.72
2018-02-16T09:24:10.909Z,47.50
2018-02-16T09:26:39.029Z,48.00
2018-02-16T09:29:07.190Z,42.97
2018-02-16T09:31:36.154Z,59.28
2018-02-16T09:34:04.301Z,43.42
2018-02-16T09:36:32.426Z,54.08
2018-02-16T09:39:03.979Z,50.05
2018-02-16T09:41:32.871Z,45.20
2018-02-16T09:44:01.778Z,55.97
2018-02-16T09:46:29.913Z,46.70
2018-02-16T09:48:58.077Z,63.13
2018-02-16T09:51:26.868Z,53.20
2018-02-16T09:53:55.009Z,55.80
2018-02-16T09:56:23.134Z,44.13
2018-02-16T09:58:51.298Z,50.60
2018-02-16T10:01:19.552Z,37.67
2018-02-16T10:03:48.450Z,52.10
2018-02-16T10:06:17.376Z,47.90
2018-02-16T10:08:45.517Z,46.75
2018-02-16T10:11:13.657Z,39.25
2018-02-16T10:13:41.803Z,37.20
2018-02-16T10:16:09.940Z,33.40
2018-02-16T10:18:38.654Z,31.85
2018-02-16T10:21:06.796Z,24.93
2018-02-16T10:23:35.692Z,27.27
2018-02-16T10:26:03.847Z,28.25
2018-02-16T10:28:32.027Z,28.63
2018-02-16T10:31:01.020Z,31.77
2018-02-16T10:33:29.148Z,30.90
2018-02-16T10:35:57.309Z,32.28
2018-02-16T10:38:25.434Z,31.00
2018-02-16T10:40:56.150Z,31.55
2018-02-16T10:43:24.680Z,31.37
2018-02-16T10:45:52.816Z,28.08
2018-02-16T10:48:21.726Z,24.25
2018-02-16T10:50:49.908Z,22.40
2018-02-16T10:53:18.037Z,25.70
2018-02-16T10:55:46.928Z,20.90
2018-02-16T10:58:15.124Z,30.87
2018-02-16T11:00:49.109Z,39.00
2018-02-16T11:03:22.900Z,30.70
2018-02-16T11:06:03.394Z,21.17
2018-02-16T11:08:39.557Z,22.13
2018-02-16T11:11:07.716Z,22.53
2018-02-16T11:13:36.641Z,31.17
2018-02-16T11:16:04.829Z,37.60
2018-02-16T11:18:32.963Z,47.97
2018-02-16T11:21:01.097Z,33.55
2018-02-16T11:23:29.241Z,41.13
2018-02-16T11:25:57.388Z,37.47
2018-02-16T11:28:25.529Z,32.60
2018-02-16T11:30:54.441Z,43.77
2018-02-16T11:33:22.614Z,46.42
2018-02-16T11:35:50.754Z,40.50
2018-02-16T11:38:19.671Z,48.60
2018-02-16T11:40:48.175Z,48.67
2018-02-16T11:43:16.313Z,51.65
2018-02-16T11:45:44.444Z,32.30
2018-02-16T11:48:12.593Z,46.05
2018-02-16T11:50:40.720Z,32.30
2018-02-16T11:53:09.025Z,37.45
2018-02-16T11:55:37.206Z,29.07
2018-02-16T11:58:05.330Z,41.10
2018-02-16T12:00:34.225Z,27.00
2018-02-16T12:03:03.121Z,22.23
2018-02-16T12:05:31.271Z,20.67
2018-02-16T12:07:59.394Z,22.53
2018-02-16T12:10:27.533Z,33.40
2018-02-16T12:12:55.828Z,30.40
2018-02-16T12:15:23.974Z,27.70
2018-02-16T12:17:52.871Z,27.30
2018-02-16T12:20:21.776Z,24.00
2018-02-16T12:22:49.897Z,28.53
2018-02-16T12:25:18.041Z,26.30
2018-02-16T12:27:46.518Z,22.20
2018-02-16T12:30:14.652Z,26.10
2018-02-16T12:32:43.552Z,22.77
2018-02-16T12:35:11.688Z,21.90
2018-02-16T12:37:39.813Z,21.87
2018-02-16T12:40:07.981Z,24.00
2018-02-16T12:42:36.116Z,25.50
2018-02-16T12:45:05.020Z,23.83
2018-02-16T12:47:33.189Z,28.13
2018-02-16T12:50:02.086Z,26.93
2018-02-16T12:52:30.208Z,30.77
2018-02-16T12:54:58.344Z,31.50
2018-02-16T12:57:26.464Z,28.50
2018-02-16T12:59:54.845Z,23.80
2018-02-16T13:02:23.045Z,19.90
2018-02-16T13:04:52.169Z,21.30
2018-02-16T13:07:20.957Z,26.83
2018-02-16T13:09:49.881Z,20.97
2018-02-16T13:12:18.863Z,23.53
2018-02-16T13:14:47.913Z,18.30
2018-02-16T13:17:16.796Z,21.10
2018-02-16T13:19:44.922Z,20.23
2018-02-16T13:22:13.073Z,19.50
2018-02-16T13:24:41.193Z,23.27
2018-02-16T13:27:10.111Z,25.30
2018-02-16T13:29:38.233Z,24.77
2018-02-16T13:32:06.375Z,26.57
2018-02-16T13:34:34.521Z,25.77
2018-02-16T13:37:02.656Z,25.60
2018-02-16T13:39:30.776Z,24.23
2018-02-16T13:41:58.916Z,20.97
2018-02-16T13:44:27.057Z,25.53
2018-02-16T13:46:55.209Z,25.90
2018-02-16T13:49:24.162Z,22.67
2018-02-16T13:51:52.405Z,28.97
2018-02-16T13:54:20.589Z,25.00
2018-02-16T13:56:49.480Z,27.03
2018-02-16T13:59:17.633Z,24.80
2018-02-16T14:01:45.748Z,20.60
2018-02-16T14:04:13.889Z,24.20
2018-02-16T14:06:42.778Z,32.70
2018-02-16T14:09:11.681Z,25.47
2018-02-16T14:11:39.823Z,30.07
2018-02-16T14:14:08.069Z,30.00
2018-02-16T14:16:36.214Z,29.43
2018-02-16T14:19:04.705Z,26.23
2018-02-16T14:21:32.844Z,29.93
2018-02-16T14:24:01.755Z,24.47
2018-02-16T14:26:30.653Z,27.93
2018-02-16T14:28:58.793Z,24.93
2018-02-16T14:31:26.908Z,28.60
2018-02-16T14:33:55.090Z,39.30
2018-02-16T14:36:23.168Z,35.00
2018-02-16T14:38:51.305Z,34.13
2018-02-16T14:41:19.432Z,33.73
2018-02-16T14:43:47.574Z,28.23
2018-02-16T14:46:15.701Z,26.00
2018-02-16T14:48:43.837Z,29.60
2018-02-16T14:51:11.968Z,29.13
2018-02-16T14:53:40.102Z,31.70
2018-02-16T14:56:08.259Z,27.87
2018-02-16T14:58:36.364Z,32.63
2018-02-16T15:01:04.485Z,27.40
2018-02-16T15:03:32.629Z,34.37
2018-02-16T15:06:00.748Z,30.83
2018-02-16T15:08:29.673Z,33.13
2018-02-16T15:10:57.812Z,32.80
2018-02-16T15:13:26.722Z,37.60
2018-02-16T15:15:54.837Z,35.33
2018-02-16T15:18:22.969Z,40.17
2018-02-16T15:20:51.104Z,39.70
2018-02-16T15:23:20.026Z,37.47
2018-02-16T15:25:48.141Z,36.40
2018-02-16T15:28:16.295Z,40.50
2018-02-16T15:30:45.186Z,43.90
2018-02-16T15:33:13.332Z,40.03
2018-02-16T15:35:41.458Z,34.70
2018-02-16T15:38:09.589Z,43.67
2018-02-16T15:40:37.765Z,43.55
2018-02-16T15:43:05.914Z,51.67
2018-02-16T15:45:34.068Z,36.65
2018-02-16T15:48:02.200Z,37.65
2018-02-16T15:50:30.361Z,42.25
2018-02-16T15:52:58.852Z,41.15
2018-02-16T15:55:27.003Z,48.63
2018-02-16T15:57:55.134Z,57.05
2018-02-16T16:00:24.033Z,44.20
2018-02-16T16:02:52.178Z,45.90
2018-02-16T16:05:20.484Z,47.03
2018-02-16T16:07:48.609Z,48.22
2018-02-16T16:10:17.230Z,56.88
2018-02-16T16:12:46.820Z,54.53
2018-02-16T16:15:14.967Z,51.60
2018-02-16T16:17:43.114Z,44.38
2018-02-16T16:20:11.333Z,57.67
2018-02-16T16:22:39.462Z,54.08
2018-02-16T16:25:07.610Z,52.38
2018-02-16T16:27:36.509Z,54.55
2018-02-16T16:30:04.681Z,57.88
2018-02-16T16:32:32.781Z,55.28
2018-02-16T16:35:01.290Z,52.25
2018-02-16T16:37:30.160Z,58.30
2018-02-16T16:39:59.073Z,58.22
2018-02-16T16:42:27.208Z,65.82
2018-02-16T16:44:55.348Z,56.42
2018-02-16T16:47:23.468Z,56.13
2018-02-16T16:49:51.618Z,58.42
2018-02-16T16:52:19.759Z,60.08
2018-02-16T16:54:47.921Z,65.68
2018-02-16T16:57:16.833Z,67.05
2018-02-16T16:59:44.981Z,53.55
2018-02-16T17:02:13.136Z,60.72
2018-02-16T17:04:41.292Z,52.72
2018-02-16T17:07:10.179Z,65.97
2018-02-16T17:09:39.073Z,65.35
2018-02-16T17:12:07.216Z,67.60
2018-02-16T17:14:35.358Z,63.25
2018-02-16T17:17:03.500Z,68.70
2018-02-16T17:19:31.645Z,65.03
2018-02-16T17:21:59.791Z,60.67
2018-02-16T17:24:27.912Z,65.32
2018-02-16T17:26:56.059Z,69.78
2018-02-16T17:29:24.180Z,66.32
2018-02-16T17:31:52.439Z,61.30
2018-02-16T17:34:20.588Z,56.55
2018-02-16T17:36:48.768Z,58.15
2018-02-16T17:39:17.665Z,58.58
2018-02-16T17:41:45.929Z,52.83
2018-02-16T17:44:14.052Z,46.08
2018-02-16T17:46:42.190Z,63.17
2018-02-16T17:49:10.348Z,58.90
2018-02-16T17:51:38.617Z,49.70
2018-02-16T17:54:07.535Z,53.78
2018-02-16T17:56:35.644Z,57.83
2018-02-16T17:59:03.790Z,52.13
2018-02-16T18:01:32.024Z,63.30
2018-02-16T18:04:00.174Z,60.78
2018-02-16T18:06:28.669Z,53.95
2018-02-16T18:08:56.805Z,58.72
2018-02-16T18:11:24.939Z,69.82
2018-02-16T18:13:53.109Z,63.35
2018-02-16T18:16:21.240Z,79.68
2018-02-16T18:19:04.277Z,61.40
2018-02-16T18:21:37.977Z,64.80
2018-02-16T18:24:06.094Z,67.12
2018-02-16T18:26:34.596Z,65.72
2018-02-16T18:29:02.716Z,62.22
2018-02-16T18:31:30.857Z,66.55
2018-02-16T18:33:58.996Z,57.78
2018-02-16T18:36:27.911Z,59.80
2018-02-16T18:38:56.057Z,58.17
2018-02-16T18:41:24.182Z,55.58
2018-02-16T18:43:52.322Z,48.95
2018-02-16T18:46:20.454Z,58.30
2018-02-16T18:48:48.580Z,54.90
2018-02-16T18:51:17.679Z,59.22
2018-02-16T18:53:45.815Z,61.95
2018-02-16T18:56:13.949Z,62.85
2018-02-16T18:58:42.073Z,62.58
2018-02-16T19:01:10.223Z,66.00
2018-02-16T19:03:38.353Z,63.75
2018-02-16T19:06:06.497Z,64.15
2018-02-16T19:08:34.628Z,52.15
2018-02-16T19:11:02.769Z,53.38
2018-02-16T19:13:30.906Z,58.03
2018-02-16T19:15:59.123Z,48.87
2018-02-16T19:18:28.250Z,56.78
2018-02-16T19:20:57.572Z,67.40
2018-02-16T19:23:26.629Z,55.65
2018-02-16T19:25:56.365Z,60.00
2018-02-16T19:28:25.810Z,53.47
2018-02-16T19:30:54.895Z,60.58
2018-02-16T19:33:24.409Z,69.50
2018-02-16T19:35:53.692Z,80.25
2018-02-16T19:38:22.480Z,69.12
2018-02-16T19:40:52.232Z,77.78
2018-02-16T19:43:20.712Z,63.00
2018-02-16T19:45:50.060Z,68.05
2018-02-16T19:48:18.757Z,55.47
2018-02-16T19:50:47.637Z,59.90
2018-02-16T19:53:19.025Z,52.47
2018-02-16T19:55:47.984Z,69.97
2018-02-16T19:58:17.282Z,70.28
2018-02-16T20:00:46.939Z,70.30
2018-02-16T20:03:15.142Z,57.22
2018-02-16T20:05:43.881Z,76.22
2018-02-16T20:08:14.452Z,85.38
2018-02-16T20:10:48.654Z,73.25
2018-02-16T20:13:22.905Z,79.95
2018-02-16T20:15:55.004Z,73.43
2018-02-16T20:18:27.374Z,69.07
2018-02-16T20:21:01.114Z,75.97
2018-02-16T20:23:32.375Z,66.50
2018-02-16T20:26:05.005Z,67.12
2018-02-16T20:28:35.160Z,63.28
2018-02-16T20:31:09.902Z,72.90
2018-02-16T20:33:41.033Z,66.12
2018-02-16T20:36:15.347Z,66.25
2018-02-16T20:38:50.045Z,66.55
2018-02-16T20:41:19.681Z,72.85
2018-02-16T20:43:50.633Z,66.90
2018-02-16T20:46:22.886Z,79.62
2018-02-16T20:48:54.345Z,70.95
2018-02-16T20:51:27.663Z,77.55
2018-02-16T20:53:56.971Z,67.97
2018-02-16T20:56:30.035Z,77.70
2018-02-16T20:59:02.937Z,72.57
2018-02-16T21:01:31.698Z,72.00
2018-02-16T21:04:00.605Z,71.45
2018-02-16T21:06:28.734Z,68.45
2018-02-16T21:08:56.890Z,61.35
2018-02-16T21:11:25.125Z,75.80
2018-02-16T21:13:53.285Z,59.70
2018-02-16T21:16:21.406Z,53.15
2018-02-16T21:18:49.524Z,60.95
2018-02-16T21:21:17.668Z,73.70
2018-02-16T21:23:45.804Z,52.08
2018-02-16T21:26:13.984Z,56.20
2018-02-16T21:28:42.055Z,56.37
2018-02-16T21:31:10.209Z,50.85
2018-02-16T21:33:38.341Z,54.72
2018-02-16T21:36:06.476Z,57.15
2018-02-16T21:38:35.377Z,64.53
2018-02-16T21:41:03.573Z,61.05
2018-02-16T21:43:31.696Z,52.80
2018-02-16T21:45:59.828Z,51.10
2018-02-16T21:48:28.709Z,55.05
2018-02-16T21:50:57.629Z,67.60
2018-02-16T21:53:25.761Z,86.78
2018-02-16T21:55:54.660Z,72.53
2018-02-16T21:58:23.872Z,76.32
2018-02-16T22:00:52.167Z,75.93
2018-02-16T22:03:20.282Z,73.45
2018-02-16T22:05:48.517Z,87.10
2018-02-16T22:08:16.617Z,71.40
2018-02-16T22:10:44.758Z,78.95
2018-02-16T22:13:12.881Z,70.85
2018-02-16T22:15:41.804Z,75.85
2018-02-16T22:18:09.938Z,73.43
2018-02-16T22:20:38.072Z,59.70
2018-02-16T22:23:06.221Z,76.78
2018-02-16T22:25:34.336Z,70.60
2018-02-16T22:28:02.498Z,73.20
2018-02-16T22:30:30.682Z,60.05
2018-02-16T22:32:58.820Z,60.28
2018-02-16T22:35:26.949Z,63.45
2018-02-16T22:37:55.853Z,66.12
2018-02-16T22:40:23.994Z,91.37
2018-02-16T22:42:52.130Z,79.50
2018-02-16T22:45:20.256Z,76.05
2018-02-16T22:47:49.169Z,79.55
2018-02-16T22:50:18.013Z,53.92
2018-02-16T22:52:46.166Z,63.38
2018-02-16T22:55:14.309Z,55.17
2018-02-16T22:57:42.438Z,56.47
2018-02-16T23:00:11.321Z,72.40
2018-02-16T23:02:39.469Z,64.68
2018-02-16T23:05:07.591Z,82.62
2018-02-16T23:07:35.720Z,85.22
2018-02-16T23:10:03.841Z,88.55
2018-02-16T23:12:31.990Z,91.22
2018-02-16T23:15:00.291Z,65.68
2018-02-16T23:17:28.437Z,59.78
2018-02-16T23:19:57.333Z,67.93
2018-02-16T23:22:26.228Z,76.95
2018-02-16T23:24:54.369Z,68.15
2018-02-16T23:27:22.490Z,55.05
2018-02-16T23:29:50.641Z,60.40
2018-02-16T23:32:18.762Z,72.45
2018-02-16T23:34:46.922Z,51.45
2018-02-16T23:37:15.054Z,56.53
2018-02-16T23:39:43.561Z,53.85
2018-02-16T23:42:11.674Z,69.28
2018-02-16T23:44:39.761Z,69.85
2018-02-16T23:47:07.909Z,76.87
2018-02-16T23:49:36.049Z,63.65
2018-02-16T23:52:04.180Z,88.03
2018-02-16T23:54:32.331Z,66.53
2018-02-16T23:57:00.492Z,68.53
2018-02-16T23:59:28.621Z,63.72
